Dayton, OH (45413)

11:21 AM EDT en Julio 27, 2016 (GMT -0400)
Butler Township | | Change Station

Alt 965 ft 39.85 °N, 84.22 °W | Updated 5 seconds ago

Scattered Clouds
Nubes dispersas
84.0 ° F
Sensación térmica 88 ° F
N
0.0
Viento Variable Viento desde SO
Gusts 0.0 mph

Hoy
Alta -- | Baja -- ° F
--% Posibilidad de precipitaciones
Ayer
Alta -- | Baja -- ° F
Precip. -- pul
Presión 30.00 pul
Visibilidad 10.0 Millas
Nubes Baja 3000 ft
Nubes dispersas 20000 ft
Índice de calor 88 ° F
Punto de rocío 69 ° F
Humedad 61%
Precipitaciones 0.00 pul
Espesor de la nieve No disponible.
6:31 AM 8:54 PM
Cuarto menguante, 42% visible
METAR KDAY 271456Z 00000KT 10SM FEW030 SCT200 28/20 A3003 RMK AO2 SLP159 T02830200 58006
Presión 30.00 pul
Visibilidad 10.0 Millas
Nubes Baja 3000 ft
Nubes dispersas 20000 ft
Índice de calor 88 ° F
Punto de rocío 69 ° F
Humedad 61%
Precipitaciones 0.00 pul
Espesor de la nieve No disponible.
6:31 AM 8:54 PM
Cuarto menguante, 42% visible
METAR KDAY 271456Z 00000KT 10SM FEW030 SCT200 28/20 A3003 RMK AO2 SLP159 T02830200 58006

10-Day Weather Forecast

Almanac

Astronomía

Jul. 27, 2016 Salida Puesta
Hora real
Crepúsculo civil
Crepúsculo náutico
Crepúsculo astronómico
Luna
Horas de luz
Horas de luz
Tomorrow will be .
, % of the Moon is Illuminated

Extremos de hoy

Máximos del estado Bajos del estado

Community

WunderPhotos

Upload Photos

1,927,859 ¡fotos cargadas!

WunderBlog® & News

Nearby

Calidad del aire

  Calidad del aire Índice AQ Contaminante
Not available.

Grosos de nieve

Estación Profundido Altura

Actividad de terremotos

Ciudad Distance Mag. Tiempo y dato
Magnitud mínima muestra es 2,5.

Temperaturas de aguas costeras

Lugar Temperatura

Stations

Estaciones meteorológicas cercanas

Ubicación de la estación Temp. Vientos helados Punto de rocío Humedad Viento Precip. Alt Actualizado Tipo
                   

Watches & Warnings

There are currently no watches in effect.